Oxford, Alabama
Current Conditions -  °F | °C
As of 1:53 AM on Saturday 20 Dec 2014 (Local Time) from KANB Reporting Station
Overcast Overcast  
Wind Chill: 42°   Ceiling: 6000
Heat Index: 42°   Visibility: 10mi
Dew Point: 39°   Wind: 3mph
Humidity: 89%   Direction: 40°NE
Pressure: 30.15"   Gusts: NA
Location:  33.587°N, 85.8241°W
Report Text: KANB 200753Z AUTO 04003KT 10SM FEW012 BKN060 OVC110 06/04 A3015 RMK AO2 RAE52 SLP215 P0003 T00560039
Loading
Personal Weather Stations






























Interactive Weather Map New forecast layout! Learn more

10-Day Weather Forecast

Advertisements
Track Severe Weather on mobile